Time;durP1;ratioP1;P1;durP2;ratioP2;P2;SDS_P1;SDS_P2;PMS_P1;PMS_P2;Temp;Humidity;BMP_temperature;BMP_pressure;BME280_temperature;BME280_humidity;BME280_pressure;Samples;Min_cycle;Max_cycle;Signal;HPM_P1;HPM_P2
2023/04/08 00:00:54;;;;;;;;;5.67;5.00;;;;;;;;5075128;27;45423;-56
2023/04/08 00:03:20;;;;;;;;;5.00;4.33;;;;;;;;5075057;27;45542;-56
2023/04/08 00:05:46;;;;;;;;;7.67;6.67;;;;;;;;5075163;27;45468;-57
2023/04/08 00:08:12;;;;;;;;;6.33;6.33;;;;;;;;5075360;27;45492;-56
2023/04/08 00:10:37;;;;;;;;;6.67;5.00;;;;;;;;5074918;27;45482;-57
2023/04/08 00:13:02;;;;;;;;;6.33;5.67;;;;;;;;5074837;27;45479;-57
2023/04/08 00:15:28;;;;;;;;;6.00;6.00;;;;;;;;5074875;27;45471;-57
2023/04/08 00:17:53;;;;;;;;;7.33;7.33;;;;;;;;5075199;27;45422;-57
2023/04/08 00:20:18;;;;;;;;;6.00;6.00;;;;;;;;5074864;27;45527;-57
2023/04/08 00:22:44;;;;;;;;;3.33;3.33;;;;;;;;5074676;27;46184;-57
2023/04/08 00:25:09;;;;;;;;;11.67;7.67;;;;;;;;5074521;27;45555;-57
2023/04/08 00:27:35;;;;;;;;;6.00;6.00;;;;;;;;5074734;27;45469;-57
2023/04/08 00:30:00;;;;;;;;;11.33;9.33;;;;;;;;5074618;27;45683;-57
2023/04/08 00:32:26;;;;;;;;;8.67;7.33;;;;;;;;5074204;27;45502;-56
2023/04/08 00:34:51;;;;;;;;;5.67;5.67;;;;;;;;5074301;27;45522;-58
2023/04/08 00:37:16;;;;;;;;;6.33;6.00;;;;;;;;5074216;27;45531;-57
2023/04/08 00:39:42;;;;;;;;;7.00;7.00;;;;;;;;5074682;27;45652;-56
2023/04/08 00:42:07;;;;;;;;;7.00;7.00;;;;;;;;5074195;27;46022;-57
2023/04/08 00:44:32;;;;;;;;;8.67;7.00;;;;;;;;5074304;27;45455;-57
2023/04/08 00:46:57;;;;;;;;;7.67;7.33;;;;;;;;5074617;27;45511;-57
2023/04/08 00:49:23;;;;;;;;;7.33;6.00;;;;;;;;5074278;27;45399;-57
2023/04/08 00:51:48;;;;;;;;;6.33;6.33;;;;;;;;5072861;27;46274;-57
2023/04/08 00:54:13;;;;;;;;;6.00;5.00;;;;;;;;5074037;27;45647;-57
2023/04/08 00:56:38;;;;;;;;;5.67;5.67;;;;;;;;5072635;27;45426;-57
2023/04/08 00:59:04;;;;;;;;;7.00;6.67;;;;;;;;5074397;27;45479;-57
2023/04/08 01:01:32;;;;;;;;;7.33;5.33;;;;;;;;5072810;27;46135;-57
2023/04/08 01:04:12;;;;;;;;;6.00;6.00;;;;;;;;5074265;27;45492;-57
2023/04/08 01:06:41;;;;;;;;;6.00;6.00;;;;;;;;5074243;27;45431;-57
2023/04/08 01:09:06;;;;;;;;;6.00;6.00;;;;;;;;5074321;27;45623;-57
2023/04/08 01:11:33;;;;;;;;;8.00;8.00;;;;;;;;5073729;27;45344;-57
2023/04/08 01:14:00;;;;;;;;;8.00;7.67;;;;;;;;5074010;27;45581;-57
2023/04/08 01:16:26;;;;;;;;;6.00;5.00;;;;;;;;5073921;27;45772;-57
2023/04/08 01:18:52;;;;;;;;;4.00;4.00;;;;;;;;5073395;27;45648;-57
2023/04/08 01:21:19;;;;;;;;;5.67;5.00;;;;;;;;5073570;28;45998;-56
2023/04/08 01:23:58;;;;;;;;;5.00;5.00;;;;;;;;5073443;27;45359;-56
2023/04/08 01:26:26;;;;;;;;;6.67;6.67;;;;;;;;5073540;27;45489;-56
2023/04/08 01:28:52;;;;;;;;;9.00;8.00;;;;;;;;5073696;28;45625;-57
2023/04/08 01:31:18;;;;;;;;;5.00;3.67;;;;;;;;5073226;27;46418;-56
2023/04/08 01:33:44;;;;;;;;;5.33;5.33;;;;;;;;5073141;28;45637;-57
2023/04/08 01:36:09;;;;;;;;;4.00;4.00;;;;;;;;5073873;28;45445;-57
2023/04/08 01:38:35;;;;;;;;;6.00;6.00;;;;;;;;5073594;27;45439;-57
2023/04/08 01:41:02;;;;;;;;;6.67;6.67;;;;;;;;5073134;27;46219;-57
2023/04/08 01:43:28;;;;;;;;;7.00;6.67;;;;;;;;5073636;27;45570;-57
2023/04/08 01:45:56;;;;;;;;;6.00;6.00;;;;;;;;5073461;27;45483;-57
2023/04/08 01:48:22;;;;;;;;;7.67;6.67;;;;;;;;5073729;27;45492;-57
2023/04/08 01:50:50;;;;;;;;;7.00;7.00;;;;;;;;5073217;27;46295;-57
2023/04/08 01:53:15;;;;;;;;;6.00;5.00;;;;;;;;5073348;27;45453;-57
2023/04/08 01:55:41;;;;;;;;;6.00;6.00;;;;;;;;5073627;28;45481;-57
2023/04/08 01:58:07;;;;;;;;;7.67;5.00;;;;;;;;5073383;27;45442;-57
2023/04/08 02:00:33;;;;;;;;;5.00;5.00;;;;;;;;5072204;28;45524;-57
2023/04/08 02:02:59;;;;;;;;;6.33;6.00;;;;;;;;5073911;27;45502;-58
2023/04/08 02:05:24;;;;;;;;;7.00;6.00;;;;;;;;5076531;27;45560;-57
2023/04/08 02:07:50;;;;;;;;;5.00;5.00;;;;;;;;5076343;27;46093;-57
2023/04/08 02:10:15;;;;;;;;;5.67;4.67;;;;;;;;5076354;27;45605;-57
2023/04/08 02:12:41;;;;;;;;;6.67;5.00;;;;;;;;5076125;27;45529;-58
2023/04/08 02:15:07;;;;;;;;;5.67;5.67;;;;;;;;5077175;27;45508;-58
2023/04/08 02:17:54;;;;;;;;;6.33;5.00;;;;;;;;5076730;27;45431;-57
2023/04/08 02:20:26;;;;;;;;;5.00;5.00;;;;;;;;5076583;27;45449;-57
2023/04/08 02:22:54;;;;;;;;;5.00;5.00;;;;;;;;5063375;28;45484;-58
2023/04/08 02:25:21;;;;;;;;;7.00;7.00;;;;;;;;5076647;27;45459;-57
2023/04/08 02:27:49;;;;;;;;;5.00;5.00;;;;;;;;5076293;27;45496;-57
2023/04/08 02:30:16;;;;;;;;;5.67;4.33;;;;;;;;5076667;28;46208;-57
2023/04/08 02:32:42;;;;;;;;;5.00;5.00;;;;;;;;5076514;27;45501;-57
2023/04/08 02:35:08;;;;;;;;;7.00;6.00;;;;;;;;5076401;27;45477;-57
2023/04/08 02:37:33;;;;;;;;;5.67;5.33;;;;;;;;5076492;28;45506;-57
2023/04/08 02:39:58;;;;;;;;;6.00;6.00;;;;;;;;5076547;27;46454;-57
2023/04/08 02:42:23;;;;;;;;;2.33;1.33;;;;;;;;5076302;27;45468;-57
2023/04/08 02:44:49;;;;;;;;;6.00;6.00;;;;;;;;5076353;27;45558;-57
2023/04/08 02:47:15;;;;;;;;;5.67;5.67;;;;;;;;5075885;27;45588;-58
2023/04/08 02:49:40;;;;;;;;;6.33;6.33;;;;;;;;5075986;27;45481;-57
2023/04/08 02:52:05;;;;;;;;;5.33;5.33;;;;;;;;5076038;27;45519;-57
2023/04/08 02:54:31;;;;;;;;;7.67;7.67;;;;;;;;5075994;27;45379;-57
2023/04/08 02:56:56;;;;;;;;;7.33;7.33;;;;;;;;5074945;28;45433;-58
2023/04/08 02:59:21;;;;;;;;;8.00;8.00;;;;;;;;5076042;27;46211;-57
2023/04/08 03:01:46;;;;;;;;;6.00;6.00;;;;;;;;5076208;28;45574;-57
2023/04/08 03:04:11;;;;;;;;;9.00;8.33;;;;;;;;5076209;27;45579;-58
2023/04/08 03:06:37;;;;;;;;;6.00;6.00;;;;;;;;5076014;27;45627;-57
2023/04/08 03:09:02;;;;;;;;;7.67;7.33;;;;;;;;5075114;27;45482;-57
2023/04/08 03:11:27;;;;;;;;;7.00;5.00;;;;;;;;5074023;27;45493;-57
2023/04/08 03:13:52;;;;;;;;;8.00;7.00;;;;;;;;5074024;27;45469;-57
2023/04/08 03:16:18;;;;;;;;;5.00;5.00;;;;;;;;5074799;27;45468;-57
2023/04/08 03:18:43;;;;;;;;;8.67;8.00;;;;;;;;5075647;28;46059;-57
2023/04/08 03:21:08;;;;;;;;;7.00;7.00;;;;;;;;5075890;27;45512;-57
2023/04/08 03:23:33;;;;;;;;;10.00;8.33;;;;;;;;5075729;27;45485;-57
2023/04/08 03:25:58;;;;;;;;;8.00;8.00;;;;;;;;5075969;27;45617;-57
2023/04/08 03:28:24;;;;;;;;;9.00;8.33;;;;;;;;5075512;27;45411;-57
2023/04/08 03:30:49;;;;;;;;;13.33;11.33;;;;;;;;5075586;27;45481;-59
2023/04/08 03:33:14;;;;;;;;;9.00;9.00;;;;;;;;5075622;27;45576;-59
2023/04/08 03:35:39;;;;;;;;;10.00;9.00;;;;;;;;5075000;27;45506;-57
2023/04/08 03:38:05;;;;;;;;;10.67;8.67;;;;;;;;5075159;27;45489;-57
2023/04/08 03:40:30;;;;;;;;;9.67;8.33;;;;;;;;5075578;27;45428;-58
2023/04/08 03:42:55;;;;;;;;;9.67;9.00;;;;;;;;5075533;27;45797;-57
2023/04/08 03:45:20;;;;;;;;;11.33;10.33;;;;;;;;5075562;27;45588;-58
2023/04/08 03:47:45;;;;;;;;;10.67;10.67;;;;;;;;5075144;27;45549;-58
2023/04/08 03:50:11;;;;;;;;;11.00;9.33;;;;;;;;5075186;27;45564;-58
2023/04/08 03:52:36;;;;;;;;;10.67;9.00;;;;;;;;5075305;27;45477;-58
2023/04/08 03:55:01;;;;;;;;;12.75;12.00;;;;;;;;5075273;27;45706;-58
2023/04/08 03:57:26;;;;;;;;;8.33;7.67;;;;;;;;5075097;27;46260;-58
2023/04/08 03:59:52;;;;;;;;;9.00;8.33;;;;;;;;5075260;27;45445;-58
2023/04/08 04:02:17;;;;;;;;;13.67;11.67;;;;;;;;5075404;27;45702;-58
2023/04/08 04:04:42;;;;;;;;;9.00;9.00;;;;;;;;5075171;28;45477;-58
2023/04/08 04:07:07;;;;;;;;;10.67;9.00;;;;;;;;5075035;27;46308;-58
2023/04/08 04:09:33;;;;;;;;;13.00;13.00;;;;;;;;5074972;27;45398;-58
2023/04/08 04:11:59;;;;;;;;;10.67;8.67;;;;;;;;5075067;28;45547;-58
2023/04/08 04:14:24;;;;;;;;;11.00;10.33;;;;;;;;5074867;27;45387;-59
2023/04/08 04:16:49;;;;;;;;;9.00;8.00;;;;;;;;5075054;28;45492;-58
2023/04/08 04:19:16;;;;;;;;;11.00;11.00;;;;;;;;5073489;27;45712;-58
2023/04/08 04:21:41;;;;;;;;;12.00;9.67;;;;;;;;5074977;27;45498;-58
2023/04/08 04:24:06;;;;;;;;;10.67;9.00;;;;;;;;5074598;27;45419;-58
2023/04/08 04:26:32;;;;;;;;;13.00;11.00;;;;;;;;5074386;27;45574;-58
2023/04/08 04:28:57;;;;;;;;;11.00;8.00;;;;;;;;5074606;27;45431;-58
2023/04/08 04:31:25;;;;;;;;;14.00;12.67;;;;;;;;5074756;27;45460;-58
2023/04/08 04:33:50;;;;;;;;;13.67;11.00;;;;;;;;5074609;27;45482;-58
2023/04/08 04:36:15;;;;;;;;;11.67;11.67;;;;;;;;5072795;27;47190;-58
2023/04/08 04:38:41;;;;;;;;;12.00;11.67;;;;;;;;5074444;27;45486;-58
2023/04/08 04:41:06;;;;;;;;;9.00;9.00;;;;;;;;5073181;28;45546;-58
2023/04/08 04:43:32;;;;;;;;;8.00;8.00;;;;;;;;5073371;28;45614;-58
2023/04/08 04:45:58;;;;;;;;;9.00;9.00;;;;;;;;5074407;27;46251;-58
2023/04/08 04:48:23;;;;;;;;;9.00;9.00;;;;;;;;5074348;27;45495;-58
2023/04/08 04:50:55;;;;;;;;;9.00;9.00;;;;;;;;5074142;27;45505;-58
2023/04/08 04:53:20;;;;;;;;;9.00;9.00;;;;;;;;5073277;27;45529;-58
2023/04/08 04:55:46;;;;;;;;;13.75;12.25;;;;;;;;5074117;27;45528;-58
2023/04/08 04:58:11;;;;;;;;;14.67;13.00;;;;;;;;5074253;27;45647;-58
2023/04/08 05:00:36;;;;;;;;;13.50;12.00;;;;;;;;5074174;27;45488;-58
2023/04/08 05:03:01;;;;;;;;;9.00;9.00;;;;;;;;5074030;27;45512;-58
2023/04/08 05:05:26;;;;;;;;;12.00;12.00;;;;;;;;5073873;27;45362;-58
2023/04/08 05:07:52;;;;;;;;;10.00;8.00;;;;;;;;5074010;27;45366;-57
2023/04/08 05:10:17;;;;;;;;;10.75;10.75;;;;;;;;5074087;27;45578;-58
2023/04/08 05:12:43;;;;;;;;;13.25;13.25;;;;;;;;5074135;27;45650;-58
2023/04/08 05:15:08;;;;;;;;;14.00;13.00;;;;;;;;5073426;27;46210;-58
2023/04/08 05:17:33;;;;;;;;;11.75;11.50;;;;;;;;5072647;28;45473;-58
2023/04/08 05:19:59;;;;;;;;;12.75;11.00;;;;;;;;5072587;28;45562;-58
2023/04/08 05:22:25;;;;;;;;;10.75;10.75;;;;;;;;5073883;28;45537;-58
2023/04/08 05:24:50;;;;;;;;;13.25;12.25;;;;;;;;5073534;27;45490;-58
2023/04/08 05:27:15;;;;;;;;;8.50;8.50;;;;;;;;5073360;27;45501;-58
2023/04/08 05:29:40;;;;;;;;;13.00;12.50;;;;;;;;5073334;27;45429;-57
2023/04/08 05:32:06;;;;;;;;;15.25;14.25;;;;;;;;5073219;27;45976;-58
2023/04/08 05:34:31;;;;;;;;;10.00;10.00;;;;;;;;5073021;28;45500;-58
2023/04/08 05:36:56;;;;;;;;;18.50;17.75;;;;;;;;5073610;28;45545;-57
2023/04/08 05:39:21;;;;;;;;;14.75;14.50;;;;;;;;5073157;27;45565;-58
2023/04/08 05:41:47;;;;;;;;;17.50;15.25;;;;;;;;5072242;27;45540;-58
2023/04/08 05:44:13;;;;;;;;;16.50;16.50;;;;;;;;5073431;27;45435;-58
2023/04/08 05:46:38;;;;;;;;;14.75;14.75;;;;;;;;5072242;28;45501;-58
2023/04/08 05:49:03;;;;;;;;;15.50;14.50;;;;;;;;5073612;27;45509;-58
2023/04/08 05:51:28;;;;;;;;;15.75;15.75;;;;;;;;5071846;27;45846;-57
2023/04/08 05:53:53;;;;;;;;;20.25;16.25;;;;;;;;5073382;27;46138;-57
2023/04/08 05:56:19;;;;;;;;;16.50;15.75;;;;;;;;5073122;28;45505;-57
2023/04/08 05:58:45;;;;;;;;;15.75;13.50;;;;;;;;5073525;27;45763;-58
2023/04/08 06:01:10;;;;;;;;;15.25;15.25;;;;;;;;5073207;27;45584;-58
2023/04/08 06:03:35;;;;;;;;;17.00;15.50;;;;;;;;5073043;28;46336;-58
2023/04/08 06:06:01;;;;;;;;;20.50;17.25;;;;;;;;5072870;27;45500;-58
2023/04/08 06:08:26;;;;;;;;;17.75;17.00;;;;;;;;5073502;27;45491;-58
2023/04/08 06:10:51;;;;;;;;;19.00;19.00;;;;;;;;5073082;27;45490;-58
2023/04/08 06:13:16;;;;;;;;;19.25;17.25;;;;;;;;5071639;28;45659;-58
2023/04/08 06:15:41;;;;;;;;;20.00;18.50;;;;;;;;5073301;28;45730;-58
2023/04/08 06:18:07;;;;;;;;;16.50;15.75;;;;;;;;5072044;27;45395;-58
2023/04/08 06:20:32;;;;;;;;;17.75;14.00;;;;;;;;5072986;27;45482;-58
2023/04/08 06:22:57;;;;;;;;;16.25;16.25;;;;;;;;5072914;28;45509;-58
2023/04/08 06:25:22;;;;;;;;;17.50;16.25;;;;;;;;5071279;27;45582;-58
2023/04/08 06:27:47;;;;;;;;;19.00;18.00;;;;;;;;5073103;27;45417;-58
2023/04/08 06:30:13;;;;;;;;;17.00;15.75;;;;;;;;5073063;28;45675;-58
2023/04/08 06:32:38;;;;;;;;;19.00;17.75;;;;;;;;5072747;27;46084;-58
2023/04/08 06:35:03;;;;;;;;;19.50;19.50;;;;;;;;5072616;27;45684;-58
2023/04/08 06:37:28;;;;;;;;;25.00;21.50;;;;;;;;5072813;28;45561;-58
2023/04/08 06:39:54;;;;;;;;;21.25;18.50;;;;;;;;5072904;27;45424;-58
2023/04/08 06:42:19;;;;;;;;;21.00;19.25;;;;;;;;5072427;27;46484;-58
2023/04/08 06:44:44;;;;;;;;;22.25;20.75;;;;;;;;5072629;27;45651;-58
2023/04/08 06:47:09;;;;;;;;;18.00;18.00;;;;;;;;5071468;27;45620;-58
2023/04/08 06:49:36;;;;;;;;;21.50;20.75;;;;;;;;5074283;27;45476;-58
2023/04/08 06:52:01;;;;;;;;;22.00;22.00;;;;;;;;5075964;28;46043;-58
2023/04/08 06:54:26;;;;;;;;;25.00;22.25;;;;;;;;5074713;28;45473;-58
2023/04/08 06:56:52;;;;;;;;;23.00;21.75;;;;;;;;5076234;27;45504;-58
2023/04/08 06:59:17;;;;;;;;;25.25;21.75;;;;;;;;5074819;27;45550;-58
2023/04/08 07:01:42;;;;;;;;;25.25;21.75;;;;;;;;5075942;27;45539;-57
2023/04/08 07:04:07;;;;;;;;;27.50;25.00;;;;;;;;5075975;27;45560;-57
2023/04/08 07:06:32;;;;;;;;;23.25;21.50;;;;;;;;5076013;27;45438;-58
2023/04/08 07:08:57;;;;;;;;;20.50;19.75;;;;;;;;5075945;27;45624;-58
2023/04/08 07:11:23;;;;;;;;;24.00;22.25;;;;;;;;5075751;28;45534;-58
2023/04/08 07:13:48;;;;;;;;;22.75;22.25;;;;;;;;5075831;27;45600;-58
2023/04/08 07:16:13;;;;;;;;;23.75;22.25;;;;;;;;5075951;27;45531;-58
2023/04/08 07:18:40;;;;;;;;;26.75;23.25;;;;;;;;5075734;27;45410;-59
2023/04/08 07:21:06;;;;;;;;;29.25;24.75;;;;;;;;5075550;28;45824;-59
2023/04/08 07:23:31;;;;;;;;;24.00;23.00;;;;;;;;5075419;27;45436;-55
2023/04/08 07:26:00;;;;;;;;;29.25;27.00;;;;;;;;5075836;27;45512;-59
2023/04/08 07:28:25;;;;;;;;;19.25;19.25;;;;;;;;5075622;28;45659;-58
2023/04/08 07:30:51;;;;;;;;;22.00;20.25;;;;;;;;5073783;28;45797;-58
2023/04/08 07:33:16;;;;;;;;;26.25;23.50;;;;;;;;5075988;27;45426;-57
2023/04/08 07:35:41;;;;;;;;;25.75;22.50;;;;;;;;5075662;27;45458;-57
2023/04/08 07:38:10;;;;;;;;;26.25;23.25;;;;;;;;5075475;27;45640;-58
2023/04/08 07:40:35;;;;;;;;;24.50;23.00;;;;;;;;5075279;27;45615;-57
2023/04/08 07:43:00;;;;;;;;;23.00;21.75;;;;;;;;5075542;27;45601;-57
2023/04/08 07:45:25;;;;;;;;;21.25;20.25;;;;;;;;5075685;27;45537;-57
2023/04/08 07:47:50;;;;;;;;;22.25;20.50;;;;;;;;5075231;27;45492;-57
2023/04/08 07:50:16;;;;;;;;;23.00;22.00;;;;;;;;5075155;27;45540;-57
2023/04/08 07:52:41;;;;;;;;;25.00;23.00;;;;;;;;5074915;27;45449;-57
2023/04/08 07:55:07;;;;;;;;;27.25;22.75;;;;;;;;5075118;27;45485;-57
2023/04/08 07:57:32;;;;;;;;;25.25;24.75;;;;;;;;5075095;27;45429;-57
2023/04/08 07:59:57;;;;;;;;;24.25;21.75;;;;;;;;5075219;27;46031;-58
2023/04/08 08:02:22;;;;;;;;;23.75;21.00;;;;;;;;5072991;27;45512;-57
2023/04/08 08:04:47;;;;;;;;;32.25;27.50;;;;;;;;5074964;27;45468;-57
2023/04/08 08:07:13;;;;;;;;;27.75;24.00;;;;;;;;5075324;27;45464;-58
2023/04/08 08:09:38;;;;;;;;;25.50;21.25;;;;;;;;5074581;27;45946;-57
2023/04/08 08:12:03;;;;;;;;;23.25;21.50;;;;;;;;5074662;27;45602;-57
2023/04/08 08:14:29;;;;;;;;;20.50;18.50;;;;;;;;5074991;27;45428;-57
2023/04/08 08:16:54;;;;;;;;;22.25;20.25;;;;;;;;5074641;27;45458;-57
2023/04/08 08:19:20;;;;;;;;;21.00;20.75;;;;;;;;5074617;27;46271;-57
2023/04/08 08:21:45;;;;;;;;;18.50;18.50;;;;;;;;5074777;27;45383;-57
2023/04/08 08:24:10;;;;;;;;;23.00;20.25;;;;;;;;5074998;27;45501;-56
2023/04/08 08:26:36;;;;;;;;;19.75;18.75;;;;;;;;5074642;27;45449;-57
2023/04/08 08:29:02;;;;;;;;;22.25;22.00;;;;;;;;5073016;27;46463;-58
2023/04/08 08:31:27;;;;;;;;;26.50;24.00;;;;;;;;5074401;28;45548;-57
2023/04/08 08:33:52;;;;;;;;;25.75;24.00;;;;;;;;5074510;27;45602;-57
2023/04/08 08:36:17;;;;;;;;;23.00;20.75;;;;;;;;5073287;27;45752;-57
2023/04/08 08:38:43;;;;;;;;;21.00;19.25;;;;;;;;5074211;27;45413;-57
2023/04/08 08:41:08;;;;;;;;;21.25;19.00;;;;;;;;5073875;27;45470;-57
2023/04/08 08:43:34;;;;;;;;;27.75;23.25;;;;;;;;5074608;27;45441;-57
2023/04/08 08:45:59;;;;;;;;;17.00;16.00;;;;;;;;5074175;27;45579;-57
2023/04/08 08:48:25;;;;;;;;;19.50;18.75;;;;;;;;5073516;27;46217;-59
2023/04/08 08:50:50;;;;;;;;;17.00;17.00;;;;;;;;5073659;27;45407;-57
2023/04/08 08:53:15;;;;;;;;;23.25;17.75;;;;;;;;5073782;27;45463;-60
2023/04/08 08:55:40;;;;;;;;;23.75;23.50;;;;;;;;5074111;27;45723;-57
2023/04/08 08:58:09;;;;;;;;;13.25;12.00;;;;;;;;5073944;27;45466;-57
2023/04/08 09:00:35;;;;;;;;;17.75;17.75;;;;;;;;5074039;27;45532;-57
2023/04/08 09:03:21;;;;;;;;;18.50;18.50;;;;;;;;5073790;27;45575;-57
2023/04/08 09:05:49;;;;;;;;;26.50;20.25;;;;;;;;5062800;27;45825;-56
2023/04/08 09:08:27;;;;;;;;;21.00;19.25;;;;;;;;5073803;28;45538;-56
2023/04/08 09:10:53;;;;;;;;;20.75;19.50;;;;;;;;5073760;27;45522;-57
2023/04/08 09:13:18;;;;;;;;;25.00;22.00;;;;;;;;5072561;27;45524;-57
2023/04/08 09:16:05;;;;;;;;;20.50;17.75;;;;;;;;5073910;27;45457;-56
2023/04/08 09:18:31;;;;;;;;;23.75;18.75;;;;;;;;5073268;27;45950;-57
2023/04/08 09:20:58;;;;;;;;;20.00;17.33;;;;;;;;5073646;27;45451;-57
2023/04/08 09:23:23;;;;;;;;;23.00;18.00;;;;;;;;5073568;27;45480;-57
2023/04/08 09:25:48;;;;;;;;;19.00;16.33;;;;;;;;5073743;27;45467;-56
2023/04/08 09:28:20;;;;;;;;;18.67;16.00;;;;;;;;5073584;27;45575;-57
2023/04/08 09:30:46;;;;;;;;;20.25;17.50;;;;;;;;5072915;28;45500;-57
2023/04/08 09:33:11;;;;;;;;;22.75;18.75;;;;;;;;5073272;27;45569;-56
2023/04/08 09:35:37;;;;;;;;;25.00;23.00;;;;;;;;5072885;28;45705;-57
2023/04/08 09:38:02;;;;;;;;;22.00;18.25;;;;;;;;5072544;27;46022;-57
2023/04/08 09:40:31;;;;;;;;;21.25;19.75;;;;;;;;5073453;27;45411;-57
2023/04/08 09:42:57;;;;;;;;;20.75;18.50;;;;;;;;5073552;28;45528;-56
2023/04/08 09:45:23;;;;;;;;;18.50;17.00;;;;;;;;5073589;27;45542;-56
2023/04/08 09:47:51;;;;;;;;;18.00;16.00;;;;;;;;5073074;27;45514;-56
2023/04/08 09:50:18;;;;;;;;;17.75;17.75;;;;;;;;5071632;28;45395;-57
2023/04/08 09:52:45;;;;;;;;;23.67;19.00;;;;;;;;5073105;27;45518;-57
2023/04/08 09:55:16;;;;;;;;;21.25;19.75;;;;;;;;5073258;27;45521;-57
2023/04/08 09:57:52;;;;;;;;;22.33;17.00;;;;;;;;5072637;27;46216;-59
2023/04/08 10:00:18;;;;;;;;;19.67;19.67;;;;;;;;5073489;27;45537;-57
2023/04/08 10:02:43;;;;;;;;;15.75;15.75;;;;;;;;5073314;27;45448;-57
2023/04/08 10:05:11;;;;;;;;;17.50;16.00;;;;;;;;5073390;27;45563;-56
2023/04/08 10:07:37;;;;;;;;;17.00;15.67;;;;;;;;5073214;27;45589;-58
2023/04/08 10:10:02;;;;;;;;;25.67;19.00;;;;;;;;5072853;27;45464;-56
2023/04/08 10:12:28;;;;;;;;;22.00;18.00;;;;;;;;5073189;27;45449;-56
2023/04/08 10:15:11;;;;;;;;;19.33;16.00;;;;;;;;5073410;27;45414;-58
2023/04/08 10:17:37;;;;;;;;;16.33;16.33;;;;;;;;5061115;28;46331;-56
2023/04/08 10:20:02;;;;;;;;;18.00;18.00;;;;;;;;5072953;27;45397;-59
2023/04/08 10:22:27;;;;;;;;;19.33;18.00;;;;;;;;5073301;28;45536;-57
2023/04/08 10:25:11;;;;;;;;;16.50;16.50;;;;;;;;5075590;27;45567;-58
2023/04/08 10:27:40;;;;;;;;;17.00;17.00;;;;;;;;5062646;27;45576;-57
2023/04/08 10:30:25;;;;;;;;;19.00;18.67;;;;;;;;5076308;27;45434;-57
2023/04/08 10:32:51;;;;;;;;;18.33;15.33;;;;;;;;5076442;27;45526;-57
2023/04/08 10:35:16;;;;;;;;;17.33;17.00;;;;;;;;5076253;27;45605;-58
2023/04/08 10:37:42;;;;;;;;;20.33;17.00;;;;;;;;5076335;27;45457;-58
2023/04/08 10:40:17;;;;;;;;;20.33;17.67;;;;;;;;5076489;27;45453;-57
2023/04/08 10:42:42;;;;;;;;;20.00;18.00;;;;;;;;5076503;27;45505;-57
2023/04/08 10:45:08;;;;;;;;;18.00;15.33;;;;;;;;5076209;27;45428;-56
2023/04/08 10:47:33;;;;;;;;;14.67;13.00;;;;;;;;5075777;27;45422;-58
2023/04/08 10:49:58;;;;;;;;;16.33;15.33;;;;;;;;5076151;27;45518;-57
2023/04/08 10:52:26;;;;;;;;;14.67;13.67;;;;;;;;5075965;27;45465;-57
2023/04/08 10:54:52;;;;;;;;;17.67;16.00;;;;;;;;5076151;27;45458;-58
2023/04/08 10:57:23;;;;;;;;;19.00;18.00;;;;;;;;5074856;27;46383;-57
2023/04/08 10:59:48;;;;;;;;;15.00;15.00;;;;;;;;5075558;27;45803;-57
2023/04/08 11:02:14;;;;;;;;;21.00;19.00;;;;;;;;5075983;27;45490;-57
2023/04/08 11:04:41;;;;;;;;;18.00;17.00;;;;;;;;5075897;27;45504;-57
2023/04/08 11:07:08;;;;;;;;;18.33;17.00;;;;;;;;5075867;27;45480;-57
2023/04/08 11:09:33;;;;;;;;;18.00;16.00;;;;;;;;5075584;27;45490;-58
2023/04/08 11:11:58;;;;;;;;;16.00;15.00;;;;;;;;5075549;27;45464;-58
2023/04/08 11:14:24;;;;;;;;;18.33;16.33;;;;;;;;5076079;27;45497;-59
2023/04/08 11:16:50;;;;;;;;;14.00;14.00;;;;;;;;5075646;27;45917;-58
2023/04/08 11:19:15;;;;;;;;;17.67;17.33;;;;;;;;5075853;27;45433;-58
2023/04/08 11:21:41;;;;;;;;;16.67;13.33;;;;;;;;5075743;27;45596;-58
2023/04/08 11:24:08;;;;;;;;;14.33;14.33;;;;;;;;5074553;27;45607;-58
2023/04/08 11:26:35;;;;;;;;;18.33;15.67;;;;;;;;5075825;27;46089;-58
2023/04/08 11:29:01;;;;;;;;;16.00;16.00;;;;;;;;5075794;27;45573;-58
2023/04/08 11:31:26;;;;;;;;;16.33;14.00;;;;;;;;5075713;27;45492;-57
2023/04/08 11:33:52;;;;;;;;;18.67;15.67;;;;;;;;5075518;27;45404;-58
2023/04/08 11:36:20;;;;;;;;;17.33;17.00;;;;;;;;5072716;27;46402;-57
2023/04/08 11:38:46;;;;;;;;;16.33;16.33;;;;;;;;5075613;27;45497;-57
2023/04/08 11:41:12;;;;;;;;;19.00;18.00;;;;;;;;5075496;27;45444;-58
2023/04/08 11:43:38;;;;;;;;;15.67;15.33;;;;;;;;5075586;27;45390;-58
2023/04/08 11:46:10;;;;;;;;;15.67;14.33;;;;;;;;5075197;27;46261;-58
2023/04/08 11:48:35;;;;;;;;;20.00;14.67;;;;;;;;5074717;27;45521;-58
2023/04/08 11:51:02;;;;;;;;;14.67;14.00;;;;;;;;5075234;28;45737;-58
2023/04/08 11:53:27;;;;;;;;;13.33;13.33;;;;;;;;5075338;27;45467;-59
2023/04/08 11:55:52;;;;;;;;;12.33;10.67;;;;;;;;5075088;27;45547;-56
2023/04/08 11:58:17;;;;;;;;;14.00;12.67;;;;;;;;5075366;27;45522;-58
2023/04/08 12:00:43;;;;;;;;;13.00;13.00;;;;;;;;5075674;28;45430;-58
2023/04/08 12:03:09;;;;;;;;;18.67;16.00;;;;;;;;5074891;27;45398;-58
2023/04/08 12:05:35;;;;;;;;;15.00;14.33;;;;;;;;5074992;27;46246;-58
2023/04/08 12:08:00;;;;;;;;;14.33;11.33;;;;;;;;5074472;28;45480;-58
2023/04/08 12:10:25;;;;;;;;;14.67;14.00;;;;;;;;5074872;27;45676;-58
2023/04/08 12:12:52;;;;;;;;;12.67;12.67;;;;;;;;5074938;28;45504;-57
2023/04/08 12:15:18;;;;;;;;;14.33;13.67;;;;;;;;5073274;27;46192;-58
2023/04/08 12:17:43;;;;;;;;;15.00;14.00;;;;;;;;5074700;27;45539;-58
2023/04/08 12:20:09;;;;;;;;;13.33;13.33;;;;;;;;5074827;27;45522;-59
2023/04/08 12:22:34;;;;;;;;;14.00;14.00;;;;;;;;5074917;27;45494;-59
2023/04/08 12:25:01;;;;;;;;;16.67;14.33;;;;;;;;5074738;27;46193;-59
2023/04/08 12:27:26;;;;;;;;;18.00;13.33;;;;;;;;5074290;27;45548;-59
2023/04/08 12:29:52;;;;;;;;;16.67;15.67;;;;;;;;5074670;27;45539;-58
2023/04/08 12:32:17;;;;;;;;;12.00;10.00;;;;;;;;5074411;27;45390;-59
2023/04/08 12:34:43;;;;;;;;;11.00;10.67;;;;;;;;5074482;27;46593;-58
2023/04/08 12:37:08;;;;;;;;;9.33;8.67;;;;;;;;5074601;27;45455;-59
2023/04/08 12:39:34;;;;;;;;;15.00;13.33;;;;;;;;5074691;28;45531;-58
2023/04/08 12:41:59;;;;;;;;;20.33;15.33;;;;;;;;5074563;27;45452;-58
2023/04/08 12:44:24;;;;;;;;;18.33;17.00;;;;;;;;5074188;28;45425;-58
2023/04/08 12:46:50;;;;;;;;;8.67;8.67;;;;;;;;5074151;27;45469;-58
2023/04/08 12:49:15;;;;;;;;;9.67;8.67;;;;;;;;5074521;27;45692;-58
2023/04/08 12:51:40;;;;;;;;;13.67;13.67;;;;;;;;5073615;27;45552;-58
2023/04/08 12:54:06;;;;;;;;;15.33;13.00;;;;;;;;5073858;27;46400;-58
2023/04/08 12:56:31;;;;;;;;;10.00;10.00;;;;;;;;5074406;28;45478;-59
2023/04/08 12:58:57;;;;;;;;;11.67;11.67;;;;;;;;5074123;27;45462;-58
2023/04/08 13:01:22;;;;;;;;;9.67;9.67;;;;;;;;5074211;27;45580;-58
2023/04/08 13:03:47;;;;;;;;;8.67;8.67;;;;;;;;5074033;27;46274;-57
2023/04/08 13:06:12;;;;;;;;;12.00;12.00;;;;;;;;5073909;27;45537;-59
2023/04/08 13:08:38;;;;;;;;;12.33;12.00;;;;;;;;5073952;27;45635;-59
2023/04/08 13:11:03;;;;;;;;;10.00;10.00;;;;;;;;5074012;27;45589;-59
2023/04/08 13:13:29;;;;;;;;;11.00;11.00;;;;;;;;5073522;27;46444;-59
2023/04/08 13:15:55;;;;;;;;;18.33;16.67;;;;;;;;5073987;27;45521;-59
2023/04/08 13:18:20;;;;;;;;;13.33;13.33;;;;;;;;5074049;27;45586;-59
2023/04/08 13:20:45;;;;;;;;;11.67;9.67;;;;;;;;5073859;27;45628;-59
2023/04/08 13:23:11;;;;;;;;;11.33;11.33;;;;;;;;5073507;27;45516;-59
2023/04/08 13:25:36;;;;;;;;;11.00;11.00;;;;;;;;5073692;28;45540;-59
2023/04/08 13:28:02;;;;;;;;;12.67;12.00;;;;;;;;5074021;27;45484;-59
2023/04/08 13:30:27;;;;;;;;;10.67;10.67;;;;;;;;5073859;28;45611;-59
2023/04/08 13:32:52;;;;;;;;;11.67;10.00;;;;;;;;5073825;27;46028;-59
2023/04/08 13:35:17;;;;;;;;;15.67;14.00;;;;;;;;5073769;27;45529;-58
2023/04/08 13:37:43;;;;;;;;;17.00;12.00;;;;;;;;5073665;28;45541;-58
2023/04/08 13:40:08;;;;;;;;;15.33;11.67;;;;;;;;5073600;27;45691;-59
2023/04/08 13:42:34;;;;;;;;;11.00;10.00;;;;;;;;5073356;27;45540;-58
2023/04/08 13:44:59;;;;;;;;;13.00;13.00;;;;;;;;5073838;27;45506;-59
2023/04/08 13:47:25;;;;;;;;;15.00;14.00;;;;;;;;5073120;27;45472;-59
2023/04/08 13:49:51;;;;;;;;;11.00;11.00;;;;;;;;5073516;28;45549;-58
2023/04/08 13:52:16;;;;;;;;;13.00;12.00;;;;;;;;5073200;28;46056;-59
2023/04/08 13:54:41;;;;;;;;;12.67;12.00;;;;;;;;5073342;28;45622;-58
2023/04/08 13:57:06;;;;;;;;;12.33;12.33;;;;;;;;5073417;27;45443;-59
2023/04/08 13:59:32;;;;;;;;;13.33;13.00;;;;;;;;5072554;27;45535;-59
2023/04/08 14:01:57;;;;;;;;;12.00;11.00;;;;;;;;5073344;28;45541;-58
2023/04/08 14:04:22;;;;;;;;;14.33;12.33;;;;;;;;5073276;27;45493;-59
2023/04/08 14:06:49;;;;;;;;;12.67;11.67;;;;;;;;5072100;27;45565;-59
2023/04/08 14:09:15;;;;;;;;;13.00;11.00;;;;;;;;5073243;27;45503;-59
2023/04/08 14:11:40;;;;;;;;;11.33;10.67;;;;;;;;5072824;27;46111;-59
2023/04/08 14:14:05;;;;;;;;;12.67;12.00;;;;;;;;5073364;27;45477;-59
2023/04/08 14:16:31;;;;;;;;;10.67;9.67;;;;;;;;5073277;27;45605;-59
2023/04/08 14:18:56;;;;;;;;;9.67;9.67;;;;;;;;5073174;27;45598;-59